x

Smith Island, Wa (sisw1) Weather Station

8:00 - Wed 22nd Mar 2017 All times are PDT. -7 hours from GMT.

  • Wind
    34mph, 39mph gusts
  • Air Temp 47°f
  • Sea Pressure 1013.4mb
  • Smith Island, Wa
  • Smith Island, Wa

More Historic Weather Station data

Upgrade to MSW Pro to gain access to the past 30 days of data for over 8000 Wavebouys and Weather Stations around the globe.

Join Pro

Comparision Forecast

View Surf forecast
   
mer. 03/22 8:00 34 39 mph 1013.4mb 47f
7:00 30 37 mph 1012.3mb 47f
6:00 30 33 mph 1011.5mb 47f
5:00 29 31 mph 1010.5mb 47f
4:00 29 36 mph 1009.2mb 51f
3:00 32 36 mph 1008.2mb 50f
2:00 30 34 mph 1008mb 51f
1:00 30 33 mph 1007.8mb 50f
12:00 28 32 mph 1007.8mb 51f
11:00 25 29 mph 1007.4mb 49f
10:00 18 21 mph 1006.9mb 50f
9:00 32 37 mph 1005.9mb 50f
8:00 28 31 mph 1005.5mb 49f
7:00 36 39 mph 1004.4mb 50f
6:00 39 43 mph 1003.5mb 50f
5:00 29 30 mph 1003.8mb 48f
4:00 24 25 mph 1004.3mb 48f
3:00 21 22 mph 1004.5mb 48f
2:00 16 17 mph 1005mb 49f
1:00 25 29 mph 1004.9mb 50f
12:00 15 21 mph 1005.5mb 49f
mar. 03/21 11:00 14 16 mph 1005.4mb 47f
10:00 11 13 mph 1005.3mb 46f
9:00 8 9 mph 1005.2mb 48f
8:00 20
mph
1005.3mb 51f
7:00 21 22 mph 1005mb 51f
6:00 24 25 mph 1004.6mb 53f
5:00 23 28 mph 1004.8mb 53f
4:00 30 34 mph 1004.7mb 52f
3:00 23 26 mph 1004.4mb 52f
2:00 9 13 mph 1004.9mb 53f
1:00 7 8 mph 1005mb 49f
12:00 8 9 mph 1004.9mb 50f
11:00 8 9 mph 1004.9mb 48f
10:00 7 8 mph 1005.7mb 49f
9:00 10 11 mph 1005.8mb 48f
8:00 11 13 mph 1006.1mb 46f
7:00 17 20 mph 1005.9mb 46f
6:00 20 23 mph 1005.9mb 46f
5:00 14 16 mph 1006.4mb 46f
4:00 10
mph
1006.8mb 46f
3:00 13 14 mph 1007.6mb 46f
2:00 11 13 mph 1008.5mb 46f
1:00 11
mph
1009.2mb 46f
12:00 14 15 mph 1010.2mb 47f
lun. 03/20 11:00 14 16 mph 1010.9mb 47f
10:00 16 18 mph 1011.7mb 48f
9:00 13 14 mph 1012.1mb 48f
8:00 5 6 mph 1012.2mb 46f
7:00 3 5 mph 1012.6mb 47f
6:00 7 8 mph 1012.7mb 48f
5:00 9 11 mph 1012.5mb 47f
4:00 7 10 mph 1013.4mb 47f
3:00 9 11 mph 1014.1mb 47f
2:00 10 11 mph 1014.9mb 49f
1:00 2 3 mph 1015.9mb 47f
12:00 3 5 mph 1016.6mb 46f
11:00  -  2 mph 1017.4mb 45f
10:00 3 5 mph 1017.6mb 44f
9:00 7 8 mph 1018.1mb 43f
8:00 5 6 mph 1018.7mb 42f
7:00 6 7 mph 1018.8mb 41f
6:00 5 6 mph 1019.5mb 42f
5:00 8 9 mph 1019.9mb 42f
4:00 3
mph
1020.3mb 42f
3:00 5 6 mph 1020.9mb 42f
2:00 15 16 mph 1021.3mb 43f
1:00 9 10 mph 1021.8mb 43f
12:00 10 13 mph 1022.5mb 43f
dim. 03/19 11:00 13
mph
1023.1mb 43f
10:00 13 14 mph 1023.5mb 44f
9:00 9 10 mph 1023.7mb 44f
8:00 11 13 mph 1024.1mb 46f
7:00 6 7 mph 1024.1mb 46f
6:00 7 9 mph 1024.7mb 46f
5:00 6 7 mph 1025.1mb 47f
4:00 6 8 mph 1025.4mb 47f
3:00 7 8 mph 1025.9mb 46f
2:00 3 5 mph 1026.5mb 46f
1:00 3 5 mph 1026.9mb 47f
12:00 6 7 mph 1027mb 45f
11:00 5 7 mph 1026.9mb 44f
10:00 9 10 mph 1026.5mb 42f
9:00 10
mph
1026.2mb 41f
8:00 9 11 mph 1025.6mb 39f
7:00 11 13 mph 1025mb 40f
6:00 9
mph
1024.7mb 40f
5:00 10 11 mph 1024mb 40f